Time,TemperatureF,DewpointF,PressureIn,WindDirection,WindDirectionDegrees,WindSpeedMPH,WindSpeedGustMPH,Humidity,HourlyPrecipIn,Conditions,Clouds,dailyrainin,SoftwareType,DateUTC
2013-08-12 00:05:00,68.8,64.6,30.09,West,266,0.0,1.0,83,0.00,NA,NA,0.10,meteo_script,2013-08-12 05:05:00,
2013-08-12 00:35:00,68.4,65.0,30.09,North,0,0.0,0.0,85,0.02,NA,NA,0.01,meteo_script,2013-08-12 05:35:00,
2013-08-12 01:05:00,68.1,64.7,30.09,North,0,0.0,0.0,86,0.00,NA,NA,0.01,meteo_script,2013-08-12 06:05:00,
2013-08-12 01:35:00,67.9,64.7,30.09,North,0,0.0,0.0,86,0.00,NA,NA,0.01,meteo_script,2013-08-12 06:35:00,
2013-08-12 02:05:00,67.7,64.6,30.07,North,0,0.0,0.0,87,0.00,NA,NA,0.01,meteo_script,2013-08-12 07:05:00,
2013-08-12 02:35:00,67.5,64.6,30.07,North,0,0.0,0.0,88,0.00,NA,NA,0.01,meteo_script,2013-08-12 07:35:00,
2013-08-12 03:05:00,67.4,64.5,30.07,North,0,0.0,0.0,88,0.08,NA,NA,0.05,meteo_script,2013-08-12 08:05:00,
2013-08-12 03:35:00,67.1,63.9,30.05,North,0,0.0,0.0,87,0.00,NA,NA,0.05,meteo_script,2013-08-12 08:35:00,
2013-08-12 04:05:00,66.8,63.9,30.05,North,0,0.0,0.0,88,0.00,NA,NA,0.05,meteo_script,2013-08-12 09:05:00,
2013-08-12 04:35:00,66.4,63.5,30.05,North,0,0.0,0.0,88,0.00,NA,NA,0.05,meteo_script,2013-08-12 09:35:00,
2013-08-12 05:05:00,66.3,63.6,30.04,North,0,0.0,0.0,88,0.00,NA,NA,0.05,meteo_script,2013-08-12 10:05:00,
2013-08-12 05:35:00,66.4,63.7,30.03,North,0,0.0,0.0,88,0.00,NA,NA,0.05,meteo_script,2013-08-12 10:35:00,
2013-08-12 06:05:00,66.3,63.6,30.03,North,0,0.0,0.0,88,0.00,NA,NA,0.05,meteo_script,2013-08-12 11:05:00,
2013-08-12 06:35:00,66.2,63.6,30.03,North,0,0.0,0.0,88,0.00,NA,NA,0.05,meteo_script,2013-08-12 11:35:00,
2013-08-12 07:05:00,66.1,63.5,30.03,North,0,0.0,0.0,89,0.00,NA,NA,0.05,meteo_script,2013-08-12 12:05:00,
2013-08-12 07:35:00,66.3,63.7,30.02,North,0,0.0,0.0,89,0.00,NA,NA,0.05,meteo_script,2013-08-12 12:35:00,
2013-08-12 08:05:00,67.0,64.6,30.02,North,0,0.0,0.0,90,0.00,NA,NA,0.05,meteo_script,2013-08-12 13:05:00,
2013-08-12 08:35:00,67.5,64.9,30.01,North,0,0.0,0.0,89,0.00,NA,NA,0.05,meteo_script,2013-08-12 13:35:00,
2013-08-12 09:05:00,68.4,65.7,30.02,North,0,0.0,0.0,89,0.00,NA,NA,0.05,meteo_script,2013-08-12 14:05:00,
2013-08-12 09:35:00,69.2,66.0,30.01,North,0,0.0,0.0,87,0.00,NA,NA,0.05,meteo_script,2013-08-12 14:35:00,
2013-08-12 10:05:00,70.5,66.3,30.01,North,0,0.0,0.0,83,0.02,NA,NA,0.06,meteo_script,2013-08-12 15:05:00,
2013-08-12 10:35:00,71.8,66.7,30.02,West,266,0.0,1.0,80,0.00,NA,NA,0.06,meteo_script,2013-08-12 15:35:00,
2013-08-12 11:05:00,72.9,66.9,30.02,NW,305,0.4,2.0,77,0.00,NA,NA,0.06,meteo_script,2013-08-12 16:05:00,
2013-08-12 11:35:00,74.0,66.6,30.02,North,0,0.0,0.0,72,0.00,NA,NA,0.06,meteo_script,2013-08-12 16:35:00,
2013-08-12 12:05:00,73.7,66.4,30.02,NW,322,0.0,1.0,73,0.00,NA,NA,0.06,meteo_script,2013-08-12 17:05:00,
2013-08-12 12:35:00,74.5,67.0,30.01,North,0,0.0,0.0,72,0.00,NA,NA,0.06,meteo_script,2013-08-12 17:35:00,
2013-08-12 13:05:00,76.0,67.1,30.01,North,355,0.0,1.0,68,0.00,NA,NA,0.06,meteo_script,2013-08-12 18:05:00,
2013-08-12 13:35:00,75.5,66.9,30.01,NNE,27,0.7,2.0,69,0.00,NA,NA,0.06,meteo_script,2013-08-12 18:35:00,
2013-08-12 14:05:00,76.3,66.6,30.00,NE,43,0.0,1.0,65,0.00,NA,NA,0.06,meteo_script,2013-08-12 19:05:00,
2013-08-12 14:35:00,77.4,66.2,30.00,North,0,0.0,0.0,62,0.00,NA,NA,0.06,meteo_script,2013-08-12 19:35:00,
2013-08-12 15:05:00,77.2,65.7,29.99,ENE,75,0.3,2.0,60,0.00,NA,NA,0.06,meteo_script,2013-08-12 20:05:00,
2013-08-12 15:35:00,78.1,64.8,29.98,NW,312,0.0,1.0,56,0.00,NA,NA,0.06,meteo_script,2013-08-12 20:35:00,
2013-08-12 16:05:00,80.2,65.5,29.97,West,281,0.5,3.0,53,0.00,NA,NA,0.06,meteo_script,2013-08-12 21:05:00,
2013-08-12 16:35:00,80.7,64.7,29.97,NE,52,0.9,2.0,50,0.00,NA,NA,0.06,meteo_script,2013-08-12 21:35:00,
2013-08-12 17:05:00,77.3,63.4,29.98,NW,326,1.1,3.0,55,0.00,NA,NA,0.06,meteo_script,2013-08-12 22:05:00,
2013-08-12 17:35:00,78.0,63.3,29.97,NNE,28,0.5,2.0,52,0.00,NA,NA,0.06,meteo_script,2013-08-12 22:35:00,
2013-08-12 18:05:00,78.1,63.4,29.98,West,263,0.6,3.0,53,0.00,NA,NA,0.06,meteo_script,2013-08-12 23:05:00,
2013-08-12 18:35:00,77.3,62.7,29.98,North,349,0.5,3.0,53,0.00,NA,NA,0.06,meteo_script,2013-08-12 23:35:00,
2013-08-12 19:05:00,76.6,62.8,29.98,North,0,0.0,0.0,55,0.00,NA,NA,0.06,meteo_script,2013-08-13 00:05:00,
2013-08-12 19:35:00,75.4,60.9,29.98,North,0,0.5,2.0,53,0.00,NA,NA,0.06,meteo_script,2013-08-13 00:35:00,
2013-08-12 20:05:00,73.9,60.7,29.99,North,9,0.1,2.0,55,0.00,NA,NA,0.06,meteo_script,2013-08-13 01:05:00,
2013-08-12 20:35:00,72.9,60.4,29.99,North,0,0.0,0.0,57,0.00,NA,NA,0.06,meteo_script,2013-08-13 01:35:00,
2013-08-12 21:05:00,72.0,60.5,29.99,North,9,0.0,1.0,60,0.00,NA,NA,0.06,meteo_script,2013-08-13 02:05:00,
2013-08-12 21:35:00,70.5,59.2,30.00,North,9,0.6,2.0,60,0.00,NA,NA,0.06,meteo_script,2013-08-13 02:35:00,
2013-08-12 22:05:00,69.9,58.6,30.02,North,8,0.1,1.0,60,0.00,NA,NA,0.06,meteo_script,2013-08-13 03:05:00,
2013-08-12 22:35:00,68.9,59.0,30.02,North,8,0.1,1.0,64,0.00,NA,NA,0.06,meteo_script,2013-08-13 03:35:00,
2013-08-12 23:05:00,68.4,58.4,30.02,North,0,0.0,0.0,63,0.00,NA,NA,0.06,meteo_script,2013-08-13 04:05:00,
2013-08-12 23:35:00,67.9,58.4,30.02,North,0,0.0,0.0,65,0.00,NA,NA,0.06,meteo_script,2013-08-13 04:35:00,